Time;durP1;ratioP1;P1;durP2;ratioP2;P2;SDS_P1;SDS_P2;PMS_P1;PMS_P2;Temp;Humidity;BMP_temperature;BMP_pressure;BME280_temperature;BME280_humidity;BME280_pressure;Samples;Min_cycle;Max_cycle;Signal;HPM_P1;HPM_P2
2023/12/21 00:02:24;;;;;;;4.73;2.30;;;17.40;72.20;;;;;;4977641;28;20485;-75
2023/12/21 00:04:53;;;;;;;4.20;2.40;;;17.40;71.90;;;;;;4992790;28;20504;-75
2023/12/21 00:07:21;;;;;;;4.13;2.33;;;17.40;72.10;;;;;;4987513;28;20441;-75
2023/12/21 00:09:49;;;;;;;2.80;2.10;;;17.40;72.10;;;;;;4994243;28;20449;-76
2023/12/21 00:12:17;;;;;;;4.40;2.90;;;17.40;71.80;;;;;;4993632;28;20512;-75
2023/12/21 00:14:45;;;;;;;3.10;2.87;;;17.40;72.20;;;;;;4993575;28;20483;-75
2023/12/21 00:17:13;;;;;;;2.40;2.20;;;17.40;72.10;;;;;;4983977;28;20517;-75
2023/12/21 00:19:40;;;;;;;2.70;2.50;;;17.40;72.00;;;;;;4990733;28;20552;-74
2023/12/21 00:22:10;;;;;;;5.67;2.73;;;17.40;72.10;;;;;;4990987;28;20450;-78
2023/12/21 00:24:38;;;;;;;2.93;2.30;;;17.40;72.00;;;;;;4981877;28;20477;-75
2023/12/21 00:27:06;;;;;;;2.53;2.20;;;17.40;72.20;;;;;;4991973;28;20449;-76
2023/12/21 00:29:34;;;;;;;3.83;2.33;;;17.40;72.10;;;;;;4987809;28;20470;-76
2023/12/21 00:32:02;;;;;;;5.80;2.57;;;17.40;72.10;;;;;;4994454;28;20520;-75
2023/12/21 00:34:31;;;;;;;4.40;2.50;;;17.40;72.20;;;;;;4992122;28;20481;-75
2023/12/21 00:36:59;;;;;;;4.17;2.13;;;17.40;72.00;;;;;;4993915;28;20442;-75
2023/12/21 00:39:28;;;;;;;3.40;2.37;;;17.40;72.10;;;;;;4993027;28;21010;-75
2023/12/21 00:41:56;;;;;;;3.20;2.63;;;17.40;71.90;;;;;;4994854;28;20438;-75
2023/12/21 00:44:24;;;;;;;4.27;2.20;;;17.40;71.90;;;;;;4994279;28;20537;-75
2023/12/21 00:46:52;;;;;;;7.37;2.40;;;17.40;72.00;;;;;;4994639;28;20469;-75
2023/12/21 00:49:20;;;;;;;5.37;2.90;;;17.40;71.90;;;;;;4992797;28;20521;-75
2023/12/21 00:51:50;;;;;;;3.03;2.70;;;17.40;72.20;;;;;;4994833;28;20452;-75
2023/12/21 00:54:18;;;;;;;4.40;2.50;;;17.40;72.00;;;;;;4994630;28;20524;-75
2023/12/21 00:56:47;;;;;;;4.53;2.20;;;17.40;72.00;;;;;;4994698;28;20532;-75
2023/12/21 00:59:15;;;;;;;5.70;2.83;;;17.40;72.10;;;;;;5004204;28;20479;-75
2023/12/21 01:01:43;;;;;;;3.63;2.03;;;17.40;71.90;;;;;;5005522;28;20453;-76
2023/12/21 01:04:11;;;;;;;4.67;2.57;;;17.40;72.20;;;;;;5000251;28;20535;-76
2023/12/21 01:06:42;;;;;;;2.93;2.30;;;17.40;72.10;;;;;;4998412;28;20437;-76
2023/12/21 01:09:09;;;;;;;7.23;2.30;;;17.40;71.90;;;;;;4975419;28;20442;-75
2023/12/21 01:11:37;;;;;;;2.80;2.50;;;17.40;72.20;;;;;;4975634;28;20469;-76
2023/12/21 01:14:06;;;;;;;2.60;2.40;;;17.40;72.10;;;;;;4975019;28;20532;-76
2023/12/21 01:16:35;;;;;;;5.47;2.77;;;17.40;72.10;;;;;;4974934;28;20521;-75
2023/12/21 01:19:02;;;;;;;3.27;2.20;;;17.40;71.80;;;;;;4974202;28;20444;-75
2023/12/21 01:21:30;;;;;;;4.90;2.57;;;17.40;71.90;;;;;;4970336;28;20931;-76
2023/12/21 01:23:58;;;;;;;4.00;2.87;;;17.40;72.10;;;;;;4974740;28;20513;-76
2023/12/21 01:26:27;;;;;;;4.30;2.73;;;17.40;71.90;;;;;;4980222;28;20515;-75
2023/12/21 01:28:54;;;;;;;4.60;2.50;;;17.40;72.10;;;;;;4993259;28;20442;-75
2023/12/21 01:31:24;;;;;;;3.33;2.57;;;17.40;72.00;;;;;;4994161;28;20548;-76
2023/12/21 01:33:52;;;;;;;3.93;2.57;;;17.40;71.90;;;;;;4994485;28;20464;-76
2023/12/21 01:36:21;;;;;;;4.73;2.40;;;17.40;71.90;;;;;;4993978;28;20437;-76
2023/12/21 01:38:50;;;;;;;2.73;2.40;;;17.40;72.00;;;;;;4993204;28;20532;-76
2023/12/21 01:41:18;;;;;;;2.70;2.40;;;17.40;72.10;;;;;;4988009;28;20513;-76
2023/12/21 01:43:46;;;;;;;4.40;2.70;;;17.40;71.90;;;;;;4974038;28;20499;-76
2023/12/21 01:46:20;;;;;;;3.07;2.40;;;17.40;72.00;;;;;;5010438;22;20501;-81
2023/12/21 01:49:01;;;;;;;3.20;2.30;;;17.40;71.90;;;;;;5051046;28;20456;-81
2023/12/21 01:51:39;;;;;;;4.47;2.30;;;17.50;71.90;;;;;;5048198;28;20447;-81
2023/12/21 01:54:19;;;;;;;6.63;2.80;;;17.50;71.90;;;;;;5034820;28;20457;-82
2023/12/21 01:56:52;;;;;;;3.53;2.53;;;17.50;71.90;;;;;;5034806;28;20522;-82
2023/12/21 01:59:30;;;;;;;3.23;2.30;;;17.40;71.70;;;;;;5037746;28;20450;-81
2023/12/21 02:02:07;;;;;;;3.23;2.23;;;17.50;71.90;;;;;;5042962;28;20447;-81
2023/12/21 02:04:51;;;;;;;4.10;2.20;;;17.50;71.90;;;;;;5033541;28;20671;-81
2023/12/21 02:07:26;;;;;;;4.07;2.27;;;17.50;71.90;;;;;;5033202;28;20481;-81
2023/12/21 02:10:02;;;;;;;4.10;2.50;;;17.50;71.80;;;;;;5033934;28;20447;-81
2023/12/21 02:12:56;;;;;;;4.27;2.13;;;17.40;71.50;;;;;;5034385;28;20467;-83
2023/12/21 02:15:28;;;;;;;2.60;2.10;;;17.40;71.80;;;;;;5034357;28;20479;-80
2023/12/21 02:18:11;;;;;;;4.83;2.47;;;17.40;71.90;;;;;;5043305;28;20464;-82
2023/12/21 02:20:47;;;;;;;3.30;2.00;;;17.40;71.80;;;;;;5033781;28;21005;-82
2023/12/21 02:23:18;;;;;;;3.23;2.30;;;17.50;71.90;;;;;;5036658;28;20529;-81
2023/12/21 02:26:00;;;;;;;3.27;2.57;;;17.50;71.50;;;;;;5044678;28;20462;-82
2023/12/21 02:28:33;;;;;;;3.50;2.53;;;17.40;71.60;;;;;;5033923;28;20447;-81
2023/12/21 02:31:09;;;;;;;3.00;2.20;;;17.40;71.50;;;;;;5033628;28;20447;-82
2023/12/21 02:33:49;;;;;;;4.33;2.10;;;17.40;71.40;;;;;;5034088;28;20448;-81
2023/12/21 02:36:25;;;;;;;3.23;2.27;;;17.40;71.90;;;;;;5033915;28;20494;-80
2023/12/21 02:39:12;;;;;;;5.63;2.37;;;17.40;71.70;;;;;;5034319;28;20443;-81
2023/12/21 02:41:47;;;;;;;3.80;2.20;;;17.40;71.80;;;;;;5040095;28;20866;-80
2023/12/21 02:44:18;;;;;;;4.90;2.53;;;17.40;71.50;;;;;;5042981;28;20435;-80
2023/12/21 02:46:52;;;;;;;2.60;2.10;;;17.40;71.60;;;;;;5032617;28;20476;-80
2023/12/21 02:49:29;;;;;;;4.50;2.40;;;17.40;71.70;;;;;;5033264;28;20473;-81
2023/12/21 02:52:08;;;;;;;6.13;2.20;;;17.40;71.70;;;;;;5033489;28;20825;-81
2023/12/21 02:54:45;;;;;;;2.97;2.13;;;17.40;71.50;;;;;;5032752;28;20458;-80
2023/12/21 02:57:38;;;;;;;4.33;2.07;;;17.40;71.70;;;;;;5032536;28;20475;-80
2023/12/21 03:03:47;;;;;;;4.83;1.83;;;17.40;71.70;;;;;;5028685;28;20443;-81
2023/12/21 03:06:52;;;;;;;3.63;2.17;;;17.40;71.50;;;;;;5037358;28;20479;-81
2023/12/21 03:09:41;;;;;;;3.70;2.37;;;17.40;71.50;;;;;;5036494;28;20455;-81
2023/12/21 03:12:21;;;;;;;3.93;2.03;;;17.40;71.90;;;;;;5036476;28;20451;-83
2023/12/21 03:14:52;;;;;;;3.17;2.17;;;17.40;71.70;;;;;;5036256;28;20453;-83
2023/12/21 03:17:22;;;;;;;3.03;2.17;;;17.40;71.30;;;;;;5043364;28;20463;-84
2023/12/21 03:20:20;;;;;;;3.97;2.10;;;17.40;71.70;;;;;;5035739;28;20426;-82
2023/12/21 03:22:54;;;;;;;3.93;2.00;;;17.40;71.70;;;;;;5036069;28;20455;-81
2023/12/21 03:25:28;;;;;;;2.40;1.70;;;17.40;71.40;;;;;;5042873;28;20497;-82
2023/12/21 03:28:14;;;;;;;5.97;2.10;;;17.40;72.30;;;;;;5044194;28;20474;-81
2023/12/21 03:31:27;;;;;;;5.13;1.97;;;17.50;71.70;;;;;;5035586;28;20447;-82
2023/12/21 03:34:04;;;;;;;2.90;2.00;;;17.50;71.70;;;;;;5038945;28;20465;-82
2023/12/21 03:37:07;;;;;;;2.13;1.83;;;17.50;71.40;;;;;;5038033;28;20467;-83
2023/12/21 03:39:52;;;;;;;3.67;1.80;;;17.50;71.50;;;;;;5036123;28;20471;-82
2023/12/21 03:42:38;;;;;;;2.33;1.90;;;17.40;71.70;;;;;;5043555;28;20443;-83
2023/12/21 03:45:09;;;;;;;3.20;2.17;;;17.40;71.50;;;;;;5060815;28;20879;-82
2023/12/21 03:47:39;;;;;;;3.87;2.13;;;17.50;71.70;;;;;;5066809;28;20478;-81
2023/12/21 03:50:09;;;;;;;3.63;1.70;;;17.50;71.40;;;;;;5071211;28;20447;-82
2023/12/21 03:52:37;;;;;;;4.73;2.30;;;17.50;71.60;;;;;;5055441;28;20462;-81
2023/12/21 03:55:06;;;;;;;1.50;1.40;;;17.50;71.30;;;;;;5054429;28;20457;-80
2023/12/21 03:57:35;;;;;;;5.60;2.43;;;17.40;71.50;;;;;;5053891;28;20466;-81
2023/12/21 04:00:06;;;;;;;5.23;1.80;;;17.40;71.40;;;;;;5044498;28;20454;-80
2023/12/21 04:02:36;;;;;;;2.40;1.97;;;17.50;71.40;;;;;;5052818;28;20461;-81
2023/12/21 04:05:07;;;;;;;2.77;1.80;;;17.50;71.40;;;;;;5043084;28;20449;-81
2023/12/21 04:07:36;;;;;;;5.17;2.03;;;17.50;71.50;;;;;;5038680;28;20967;-83
2023/12/21 04:10:07;;;;;;;2.60;2.00;;;17.50;71.20;;;;;;5044352;28;20439;-82
2023/12/21 04:12:35;;;;;;;3.10;1.77;;;17.50;71.30;;;;;;5044452;28;20462;-82
2023/12/21 04:15:04;;;;;;;3.67;1.97;;;17.50;71.50;;;;;;5043003;28;20446;-82
2023/12/21 04:17:38;;;;;;;2.70;1.80;;;17.50;71.20;;;;;;5052835;28;20458;-82
2023/12/21 04:20:18;;;;;;;2.90;1.80;;;17.50;71.30;;;;;;5054142;28;20533;-81
2023/12/21 04:22:56;;;;;;;3.57;1.57;;;17.50;71.40;;;;;;5050467;28;20470;-81
2023/12/21 04:25:36;;;;;;;1.90;1.70;;;17.50;71.40;;;;;;5043907;28;20477;-83
2023/12/21 04:28:17;;;;;;;4.70;2.07;;;17.50;71.40;;;;;;5038351;28;20545;-79
2023/12/21 04:30:57;;;;;;;3.10;1.73;;;17.50;71.30;;;;;;5042108;28;20443;-82
2023/12/21 04:33:37;;;;;;;3.63;1.73;;;17.50;71.20;;;;;;5044708;28;20480;-81
2023/12/21 04:36:14;;;;;;;2.70;1.97;;;17.50;71.40;;;;;;5045130;28;20435;-81
2023/12/21 04:38:48;;;;;;;3.57;2.43;;;17.50;71.00;;;;;;5052133;28;20449;-81
2023/12/21 04:41:27;;;;;;;1.80;1.70;;;17.50;71.40;;;;;;5044768;28;20443;-83
2023/12/21 04:44:09;;;;;;;3.93;1.60;;;17.50;71.50;;;;;;5052605;28;20450;-82
2023/12/21 04:46:47;;;;;;;4.93;1.80;;;17.50;71.20;;;;;;5045924;28;20495;-81
2023/12/21 04:49:31;;;;;;;2.13;1.50;;;17.50;71.00;;;;;;5040909;28;20447;-81
2023/12/21 04:52:12;;;;;;;3.80;1.87;;;17.50;71.20;;;;;;5041448;28;20496;-80
2023/12/21 04:54:48;;;;;;;2.50;1.63;;;17.50;71.30;;;;;;5041732;28;20501;-81
2023/12/21 04:57:31;;;;;;;5.80;1.90;;;17.50;71.30;;;;;;5049498;28;20463;-80
2023/12/21 05:00:23;;;;;;;1.63;1.53;;;17.50;71.30;;;;;;5050327;28;20530;-81
2023/12/21 05:03:00;;;;;;;2.77;1.50;;;17.50;71.30;;;;;;5034330;28;20443;-80
2023/12/21 05:05:41;;;;;;;4.87;2.00;;;17.50;71.40;;;;;;5036519;28;20450;-81
2023/12/21 05:08:29;;;;;;;1.57;1.47;;;17.50;71.20;;;;;;5046504;28;20470;-81
2023/12/21 05:11:12;;;;;;;1.43;1.30;;;17.50;71.20;;;;;;5051619;28;20445;-81
2023/12/21 05:13:47;;;;;;;2.03;1.93;;;17.50;71.30;;;;;;5050547;28;20508;-80
2023/12/21 05:16:27;;;;;;;3.10;1.60;;;17.50;71.40;;;;;;5043141;28;20463;-81
2023/12/21 05:19:03;;;;;;;2.73;1.70;;;17.50;71.20;;;;;;5048742;28;20450;-79
2023/12/21 05:21:34;;;;;;;3.33;1.67;;;17.50;71.10;;;;;;5044440;28;20477;-81
2023/12/21 05:24:24;;;;;;;2.70;2.10;;;17.50;71.30;;;;;;5052098;28;20547;-81
2023/12/21 05:27:07;;;;;;;1.50;1.27;;;17.50;71.10;;;;;;5032278;28;20503;-81
2023/12/21 05:29:50;;;;;;;1.60;1.50;;;17.50;71.00;;;;;;5035604;28;20458;-81
2023/12/21 05:32:34;;;;;;;2.30;1.40;;;17.40;71.30;;;;;;5034687;28;20482;-81
2023/12/21 05:35:14;;;;;;;2.07;1.50;;;17.50;71.10;;;;;;5032803;28;20482;-82
2023/12/21 05:37:51;;;;;;;1.90;1.60;;;17.50;71.20;;;;;;5051376;28;20458;-82
2023/12/21 05:40:30;;;;;;;1.87;1.30;;;17.40;71.20;;;;;;5051983;28;20453;-82
2023/12/21 05:43:09;;;;;;;2.00;1.33;;;17.40;71.40;;;;;;5051288;28;20450;-82
2023/12/21 05:45:52;;;;;;;1.13;1.00;;;17.50;71.30;;;;;;5047072;28;20438;-82
2023/12/21 05:48:26;;;;;;;4.60;1.50;;;17.50;71.20;;;;;;5041295;28;20543;-82
2023/12/21 05:50:54;;;;;;;3.13;1.53;;;17.50;71.30;;;;;;5033180;28;20451;-81
2023/12/21 05:53:30;;;;;;;1.57;1.40;;;17.50;71.00;;;;;;5034481;28;20436;-82
2023/12/21 05:56:19;;;;;;;1.67;1.40;;;17.50;70.90;;;;;;5047345;28;20442;-82
2023/12/21 05:58:57;;;;;;;1.40;1.20;;;17.50;71.20;;;;;;5044835;28;20488;-83
2023/12/21 06:01:51;;;;;;;1.40;1.23;;;17.50;71.10;;;;;;5043149;28;20534;-82
2023/12/21 06:04:19;;;;;;;1.50;1.40;;;17.50;71.10;;;;;;5042665;28;20448;-83
2023/12/21 06:06:50;;;;;;;2.13;1.30;;;17.50;71.10;;;;;;5040145;28;20470;-83
2023/12/21 06:09:21;;;;;;;2.30;1.33;;;17.50;71.40;;;;;;5049688;28;20449;-84
2023/12/21 06:12:06;;;;;;;2.50;1.27;;;17.50;71.10;;;;;;5038732;28;20447;-82
2023/12/21 06:14:44;;;;;;;1.40;1.30;;;17.50;71.00;;;;;;5039721;28;20451;-82
2023/12/21 06:17:14;;;;;;;1.30;1.20;;;17.50;71.30;;;;;;5047808;28;20462;-82
2023/12/21 06:19:44;;;;;;;1.43;1.20;;;17.50;71.10;;;;;;5047255;28;20534;-81
2023/12/21 06:22:20;;;;;;;1.63;1.30;;;17.50;70.90;;;;;;5039933;28;20489;-82
2023/12/21 06:27:51;;;;;;;1.87;1.20;;;17.50;71.20;;;;;;5032719;28;20499;-82
2023/12/21 06:30:26;;;;;;;1.67;1.33;;;17.40;71.00;;;;;;5037957;28;20449;-83
2023/12/21 06:33:02;;;;;;;1.47;1.37;;;17.50;71.00;;;;;;5032128;28;20447;-82
2023/12/21 06:35:31;;;;;;;1.30;1.20;;;17.50;71.10;;;;;;5045391;28;20458;-81
2023/12/21 06:37:58;;;;;;;3.43;1.30;;;17.50;70.70;;;;;;5053929;28;20471;-82
2023/12/21 06:40:29;;;;;;;1.30;1.10;;;17.50;71.00;;;;;;5053123;28;20439;-83
2023/12/21 06:43:16;;;;;;;1.53;1.43;;;17.40;71.20;;;;;;5041275;28;20454;-82
2023/12/21 06:45:47;;;;;;;1.10;1.00;;;17.40;70.80;;;;;;5038329;28;20485;-82
2023/12/21 06:48:15;;;;;;;1.07;1.07;;;17.50;71.00;;;;;;5034932;28;20574;-83
2023/12/21 06:50:46;;;;;;;1.20;1.10;;;17.50;71.00;;;;;;5049089;28;20546;-82
2023/12/21 06:53:27;;;;;;;1.47;1.07;;;17.50;71.00;;;;;;5036027;28;20438;-82
2023/12/21 06:56:07;;;;;;;2.00;1.13;;;17.40;70.80;;;;;;5049945;28;20446;-82
2023/12/21 06:59:09;;;;;;;1.00;1.00;;;17.40;70.90;;;;;;5036728;28;20427;-82
2023/12/21 07:01:52;;;;;;;1.50;1.20;;;17.40;70.80;;;;;;5042082;28;20450;-82
2023/12/21 07:04:42;;;;;;;1.30;1.03;;;17.50;71.20;;;;;;5039817;28;20447;-83
2023/12/21 07:07:36;;;;;;;2.70;1.33;;;17.50;71.10;;;;;;5044872;28;21011;-83
2023/12/21 07:10:16;;;;;;;1.63;1.07;;;17.40;70.90;;;;;;5046010;28;20505;-82
2023/12/21 07:13:03;;;;;;;1.07;0.90;;;17.40;70.90;;;;;;5037256;28;20542;-83
2023/12/21 07:15:44;;;;;;;1.07;0.97;;;17.50;71.00;;;;;;5046410;28;20453;-84
2023/12/21 07:18:38;;;;;;;1.17;0.93;;;17.50;70.80;;;;;;5054831;22;20482;-83
2023/12/21 07:21:19;;;;;;;1.30;1.20;;;17.40;71.20;;;;;;5044468;28;20439;-83
2023/12/21 07:23:54;;;;;;;1.00;0.90;;;17.50;70.80;;;;;;5050404;28;20458;-81
2023/12/21 07:26:34;;;;;;;1.13;1.13;;;17.40;70.90;;;;;;5047368;28;20472;-83
2023/12/21 07:29:31;;;;;;;1.10;1.10;;;17.50;70.70;;;;;;5049725;28;20477;-82
2023/12/21 07:32:19;;;;;;;1.20;1.10;;;17.40;71.00;;;;;;5056220;28;20453;-80
2023/12/21 07:34:47;;;;;;;1.20;1.10;;;17.40;70.90;;;;;;5048564;28;20449;-82
2023/12/21 07:37:16;;;;;;;1.20;1.10;;;17.40;71.10;;;;;;5050460;28;20550;-83
2023/12/21 07:39:46;;;;;;;1.40;1.30;;;17.50;71.00;;;;;;5052480;28;20457;-82
2023/12/21 07:42:14;;;;;;;1.47;1.23;;;17.40;70.80;;;;;;5044434;28;20493;-82
2023/12/21 07:44:42;;;;;;;1.50;1.40;;;17.40;70.90;;;;;;5046276;28;20446;-82
2023/12/21 07:47:12;;;;;;;1.30;1.20;;;17.40;71.10;;;;;;5055502;28;20528;-83
2023/12/21 07:49:40;;;;;;;2.40;1.60;;;17.40;71.00;;;;;;5053616;28;20442;-83
2023/12/21 07:52:09;;;;;;;1.30;1.20;;;17.40;71.20;;;;;;5055530;28;20450;-82
2023/12/21 07:54:37;;;;;;;1.40;1.30;;;17.40;70.80;;;;;;5054694;28;20449;-83
2023/12/21 07:57:10;;;;;;;2.70;1.50;;;17.40;70.80;;;;;;5057055;28;20462;-83
2023/12/21 07:59:41;;;;;;;2.13;1.50;;;17.40;71.20;;;;;;5061905;28;20461;-82
2023/12/21 08:02:10;;;;;;;1.50;1.40;;;17.50;71.00;;;;;;5061925;28;20453;-81
2023/12/21 08:04:41;;;;;;;1.47;1.37;;;17.40;70.80;;;;;;5062456;28;20442;-81
2023/12/21 08:07:12;;;;;;;1.50;1.40;;;17.40;70.70;;;;;;5054685;28;20467;-80
2023/12/21 08:09:41;;;;;;;2.00;1.30;;;17.40;71.10;;;;;;5053243;28;20595;-82
2023/12/21 08:12:09;;;;;;;1.50;1.40;;;17.40;71.20;;;;;;5054020;28;20451;-80
2023/12/21 08:14:37;;;;;;;2.20;1.53;;;17.40;70.90;;;;;;5053842;28;20447;-81
2023/12/21 08:17:09;;;;;;;1.67;1.57;;;17.50;71.30;;;;;;5053574;28;20474;-79
2023/12/21 08:19:40;;;;;;;1.70;1.60;;;17.50;70.90;;;;;;5052575;28;20437;-82
2023/12/21 08:22:09;;;;;;;1.33;1.23;;;17.50;70.80;;;;;;5054643;28;20446;-82
2023/12/21 08:24:39;;;;;;;2.00;1.70;;;17.40;70.50;;;;;;5054238;28;20529;-82
2023/12/21 08:27:08;;;;;;;1.10;1.10;;;17.40;71.00;;;;;;5049778;28;20469;-81
2023/12/21 08:29:40;;;;;;;3.67;1.70;;;17.50;71.00;;;;;;5052575;28;20543;-83
2023/12/21 08:32:21;;;;;;;1.60;1.40;;;17.50;70.80;;;;;;5054558;28;20477;-83
2023/12/21 08:35:26;;;;;;;1.60;1.40;;;17.50;71.00;;;;;;5045977;28;20442;-84
2023/12/21 08:38:18;;;;;;;1.50;1.40;;;17.50;70.90;;;;;;5048049;28;20462;-84
2023/12/21 08:41:41;;;;;;;1.57;1.40;;;17.50;70.80;;;;;;5054187;28;20445;-84
2023/12/21 08:44:22;;;;;;;2.53;1.40;;;17.50;71.00;;;;;;5054549;28;20473;-84
2023/12/21 08:46:57;;;;;;;1.77;1.60;;;17.50;70.80;;;;;;5052268;28;20478;-84
2023/12/21 08:52:32;;;;;;;1.90;1.40;;;17.50;70.70;;;;;;5046747;28;20485;-82
2023/12/21 08:55:06;;;;;;;1.57;1.47;;;17.50;70.90;;;;;;5050020;28;20450;-82
2023/12/21 08:57:41;;;;;;;1.50;1.40;;;17.50;70.60;;;;;;5054480;28;20549;-82
2023/12/21 09:00:16;;;;;;;1.70;1.60;;;17.50;70.80;;;;;;5051213;28;20473;-83
2023/12/21 09:02:58;;;;;;;1.90;1.20;;;17.50;70.80;;;;;;5053402;28;20447;-83
2023/12/21 09:05:36;;;;;;;1.37;1.27;;;17.60;70.90;;;;;;5059088;28;20505;-83
2023/12/21 09:08:11;;;;;;;1.30;1.20;;;17.60;70.90;;;;;;5056327;28;20474;-80
2023/12/21 09:10:42;;;;;;;4.53;1.67;;;17.60;70.70;;;;;;5056573;28;20446;-81
2023/12/21 09:13:13;;;;;;;3.77;1.60;;;17.60;71.00;;;;;;5053008;28;20521;-81
2023/12/21 09:15:47;;;;;;;1.40;1.30;;;17.60;70.70;;;;;;5048228;28;20462;-83
2023/12/21 09:18:19;;;;;;;1.90;1.80;;;17.60;70.70;;;;;;5054291;28;20498;-82
2023/12/21 09:20:52;;;;;;;1.30;1.30;;;17.60;70.80;;;;;;5055460;28;20438;-83
2023/12/21 09:23:26;;;;;;;1.23;1.23;;;17.60;71.00;;;;;;5045787;28;20444;-82
2023/12/21 09:25:56;;;;;;;1.30;1.30;;;17.60;70.90;;;;;;5052118;28;20451;-81
2023/12/21 09:28:27;;;;;;;1.60;1.50;;;17.60;70.60;;;;;;5047876;28;20529;-81
2023/12/21 09:31:01;;;;;;;1.60;1.50;;;17.60;70.60;;;;;;5055994;28;20458;-81
2023/12/21 09:33:39;;;;;;;1.27;1.17;;;17.60;70.70;;;;;;5058984;28;20537;-81
2023/12/21 09:36:11;;;;;;;1.37;1.30;;;17.70;70.80;;;;;;5053546;28;20451;-81
2023/12/21 09:38:50;;;;;;;1.33;1.23;;;17.60;70.70;;;;;;5045636;28;20478;-80
2023/12/21 09:41:22;;;;;;;1.87;1.17;;;17.70;70.80;;;;;;5055368;28;20443;-82
2023/12/21 09:44:08;;;;;;;1.47;1.37;;;17.60;70.30;;;;;;5046460;28;20447;-81
2023/12/21 09:46:43;;;;;;;1.60;1.50;;;17.70;70.70;;;;;;5053582;28;20470;-81
2023/12/21 09:49:13;;;;;;;1.13;1.13;;;17.70;70.40;;;;;;5044935;28;20586;-79
2023/12/21 09:51:46;;;;;;;3.00;1.20;;;17.70;70.50;;;;;;5053252;28;20461;-80
2023/12/21 09:54:28;;;;;;;1.53;0.90;;;17.70;70.90;;;;;;5047198;28;20520;-81
2023/12/21 09:57:04;;;;;;;2.27;1.67;;;17.70;70.70;;;;;;5049781;28;20463;-81
2023/12/21 09:59:40;;;;;;;1.43;1.20;;;17.70;70.80;;;;;;5041285;28;20956;-80
2023/12/21 10:02:12;;;;;;;1.20;1.20;;;17.70;70.60;;;;;;5054898;28;20496;-81
2023/12/21 10:04:42;;;;;;;1.27;1.17;;;17.70;70.40;;;;;;5047423;28;20534;-81
2023/12/21 10:07:17;;;;;;;1.00;1.00;;;17.70;70.80;;;;;;5056317;28;20458;-81
2023/12/21 10:09:48;;;;;;;1.40;1.30;;;17.70;70.50;;;;;;5051248;28;20476;-82
2023/12/21 10:12:17;;;;;;;1.10;1.10;;;17.70;70.60;;;;;;5041825;28;20511;-78
2023/12/21 10:14:44;;;;;;;3.70;1.30;;;17.70;70.80;;;;;;5052164;28;20446;-79
2023/12/21 10:17:13;;;;;;;1.20;1.10;;;17.70;70.70;;;;;;5058492;28;20459;-80
2023/12/21 10:19:45;;;;;;;2.30;1.17;;;17.70;70.90;;;;;;5047868;28;20440;-81
2023/12/21 10:22:13;;;;;;;1.47;1.37;;;17.70;70.70;;;;;;5045199;28;20481;-79
2023/12/21 10:24:45;;;;;;;1.57;1.20;;;17.70;70.80;;;;;;5053442;28;20429;-80
2023/12/21 10:27:21;;;;;;;1.20;1.10;;;17.70;70.70;;;;;;5042391;28;20471;-81
2023/12/21 10:29:54;;;;;;;1.37;1.27;;;17.70;71.40;;;;;;5056930;28;20477;-79
2023/12/21 10:32:31;;;;;;;1.47;1.37;;;17.80;70.90;;;;;;5045370;28;20463;-78
2023/12/21 10:35:09;;;;;;;1.30;1.20;;;17.80;70.80;;;;;;5052429;28;20430;-83
2023/12/21 10:37:39;;;;;;;1.30;1.20;;;17.80;70.90;;;;;;5041899;28;20470;-80
2023/12/21 10:40:09;;;;;;;1.17;1.13;;;17.80;70.80;;;;;;5046586;28;20450;-79
2023/12/21 10:42:38;;;;;;;1.77;1.23;;;17.70;70.70;;;;;;5039111;28;20482;-78
2023/12/21 10:45:07;;;;;;;1.40;1.30;;;17.80;71.00;;;;;;5048960;28;20451;-78
2023/12/21 10:47:49;;;;;;;2.50;1.20;;;17.80;70.70;;;;;;5047335;28;20443;-80
2023/12/21 10:50:18;;;;;;;1.40;1.30;;;17.80;70.70;;;;;;5035886;28;20533;-79
2023/12/21 10:52:47;;;;;;;1.43;1.33;;;17.80;70.90;;;;;;5045136;28;20446;-78
2023/12/21 10:55:16;;;;;;;1.20;1.20;;;17.80;70.80;;;;;;5040002;28;20964;-78
2023/12/21 10:57:56;;;;;;;1.57;1.47;;;17.80;71.10;;;;;;5050301;28;20467;-80
2023/12/21 11:00:24;;;;;;;1.87;1.77;;;17.80;71.20;;;;;;5049132;28;20446;-81
2023/12/21 11:02:52;;;;;;;1.70;1.60;;;17.80;71.20;;;;;;5050449;28;20450;-78
2023/12/21 11:05:22;;;;;;;1.73;1.40;;;17.80;71.20;;;;;;5047470;28;20439;-79
2023/12/21 11:08:00;;;;;;;2.20;1.73;;;17.80;70.70;;;;;;5046792;28;20523;-79
2023/12/21 11:10:32;;;;;;;1.83;1.67;;;17.90;71.10;;;;;;5042049;28;20571;-78
2023/12/21 11:13:01;;;;;;;1.83;1.70;;;18.00;71.10;;;;;;5046613;28;20446;-80
2023/12/21 11:15:31;;;;;;;1.87;1.73;;;18.00;71.00;;;;;;5040769;28;20504;-79
2023/12/21 11:18:02;;;;;;;5.20;1.97;;;18.00;71.00;;;;;;5048302;28;20474;-79
2023/12/21 11:20:52;;;;;;;1.97;1.87;;;18.10;71.00;;;;;;5044464;28;20446;-77
2023/12/21 11:23:24;;;;;;;2.03;1.80;;;18.10;70.90;;;;;;5044068;28;20453;-80
2023/12/21 11:25:59;;;;;;;2.30;1.90;;;18.10;70.90;;;;;;5046628;28;20446;-78
2023/12/21 11:28:49;;;;;;;4.37;1.93;;;18.10;70.80;;;;;;5051762;28;20446;-79
2023/12/21 11:31:20;;;;;;;4.40;2.10;;;18.10;71.10;;;;;;5048063;28;20470;-80
2023/12/21 11:33:49;;;;;;;2.20;1.87;;;18.10;71.30;;;;;;5044380;28;20451;-79
2023/12/21 11:36:23;;;;;;;3.53;1.80;;;18.10;71.00;;;;;;5044201;28;20466;-78
2023/12/21 11:38:52;;;;;;;2.83;2.20;;;18.10;71.10;;;;;;5049958;28;20458;-78
2023/12/21 11:41:24;;;;;;;3.57;1.77;;;18.10;71.00;;;;;;5045877;28;20447;-78
2023/12/21 11:43:57;;;;;;;3.80;2.17;;;18.10;71.00;;;;;;5050676;28;20446;-79
2023/12/21 11:46:25;;;;;;;3.10;1.97;;;18.10;71.20;;;;;;5044121;28;20478;-77
2023/12/21 11:48:54;;;;;;;2.50;2.13;;;18.10;71.10;;;;;;5048383;28;20542;-78
2023/12/21 11:51:22;;;;;;;4.43;2.37;;;18.10;71.20;;;;;;5053630;28;20466;-81
2023/12/21 11:53:50;;;;;;;4.33;2.23;;;18.20;71.20;;;;;;5060296;28;20446;-78
2023/12/21 11:56:19;;;;;;;3.50;1.83;;;18.20;71.60;;;;;;5051708;28;20474;-81
2023/12/21 11:58:48;;;;;;;5.50;2.20;;;18.20;71.30;;;;;;5056332;28;20465;-79
2023/12/21 12:01:27;;;;;;;2.70;2.10;;;18.20;71.10;;;;;;5055124;28;20466;-83
2023/12/21 12:03:56;;;;;;;4.40;2.40;;;18.30;71.70;;;;;;5060973;28;20477;-84
2023/12/21 12:06:25;;;;;;;4.03;2.30;;;18.30;71.20;;;;;;5053222;28;20470;-82
2023/12/21 12:08:53;;;;;;;3.20;2.37;;;18.40;71.70;;;;;;5058179;28;20457;-84
2023/12/21 12:11:21;;;;;;;4.97;2.43;;;18.50;71.50;;;;;;5063361;28;20503;-83
2023/12/21 12:13:50;;;;;;;3.87;1.93;;;18.50;71.10;;;;;;5051936;28;20442;-84
2023/12/21 12:16:18;;;;;;;3.00;2.10;;;18.50;70.60;;;;;;5060082;28;20478;-85
2023/12/21 12:18:47;;;;;;;8.03;2.80;;;18.50;70.90;;;;;;5067366;28;20443;-84
2023/12/21 12:21:16;;;;;;;5.00;2.47;;;18.50;70.60;;;;;;5054348;28;20550;-83
2023/12/21 12:23:46;;;;;;;4.97;2.50;;;18.50;71.00;;;;;;5051505;28;20537;-83
2023/12/21 12:26:14;;;;;;;2.70;1.90;;;18.50;70.90;;;;;;5058528;28;20421;-83
2023/12/21 12:28:44;;;;;;;3.63;2.20;;;18.50;71.20;;;;;;5064423;28;20488;-82
2023/12/21 12:31:12;;;;;;;2.90;2.37;;;18.50;70.90;;;;;;5047734;28;20473;-82
2023/12/21 12:33:41;;;;;;;7.57;2.50;;;18.40;71.20;;;;;;5043100;28;20460;-82
2023/12/21 12:36:11;;;;;;;4.80;2.50;;;18.40;71.20;;;;;;5048379;28;20527;-83
2023/12/21 12:38:39;;;;;;;3.70;2.00;;;18.40;71.40;;;;;;5046664;28;20500;-83
2023/12/21 12:41:08;;;;;;;4.30;2.13;;;18.30;71.00;;;;;;5056542;28;20494;-81
2023/12/21 12:43:36;;;;;;;2.77;1.77;;;18.30;71.30;;;;;;5056498;28;20450;-81
2023/12/21 12:46:05;;;;;;;5.93;2.40;;;18.30;71.20;;;;;;5052637;28;20496;-81
2023/12/21 12:48:33;;;;;;;5.23;2.27;;;18.20;71.10;;;;;;5056097;28;20474;-81
2023/12/21 12:51:02;;;;;;;3.30;2.40;;;18.20;71.10;;;;;;5073149;28;20500;-82
2023/12/21 12:53:31;;;;;;;3.37;2.00;;;18.20;71.00;;;;;;5063505;28;20431;-81
2023/12/21 12:55:59;;;;;;;8.73;2.40;;;18.10;70.80;;;;;;5073298;28;20447;-82
2023/12/21 12:58:34;;;;;;;3.07;2.27;;;18.10;71.10;;;;;;5063276;28;20432;-83
2023/12/21 13:01:19;;;;;;;3.27;1.83;;;18.10;71.20;;;;;;5072964;28;20426;-82
2023/12/21 13:03:50;;;;;;;3.43;2.17;;;18.10;71.00;;;;;;5065332;28;20447;-82
2023/12/21 13:06:19;;;;;;;2.40;1.77;;;18.00;71.10;;;;;;5069972;28;20550;-81
2023/12/21 13:08:48;;;;;;;2.83;1.97;;;18.00;70.50;;;;;;5066694;28;20517;-82
2023/12/21 13:11:16;;;;;;;2.43;1.53;;;18.00;70.80;;;;;;5061237;28;20467;-82
2023/12/21 13:13:45;;;;;;;2.90;1.63;;;18.00;70.90;;;;;;5054807;28;20451;-82
2023/12/21 13:16:18;;;;;;;3.27;1.83;;;18.00;71.20;;;;;;5044415;28;20518;-81
2023/12/21 13:18:47;;;;;;;3.07;1.63;;;18.00;71.00;;;;;;5049820;28;20457;-83
2023/12/21 13:21:15;;;;;;;3.53;1.93;;;18.00;71.00;;;;;;5060394;28;20455;-82
2023/12/21 13:23:43;;;;;;;2.50;2.10;;;18.00;70.90;;;;;;5056307;28;20484;-82
2023/12/21 13:26:13;;;;;;;3.83;2.30;;;18.00;71.00;;;;;;5057934;28;20473;-83
2023/12/21 13:28:43;;;;;;;3.30;2.40;;;18.00;70.70;;;;;;5065067;28;20452;-83
2023/12/21 13:31:12;;;;;;;3.23;2.20;;;18.00;70.90;;;;;;5064073;28;20470;-83
2023/12/21 13:33:40;;;;;;;2.47;2.27;;;18.00;70.70;;;;;;5063830;28;20470;-82
2023/12/21 13:36:09;;;;;;;3.47;1.90;;;18.10;70.80;;;;;;5062085;28;20518;-83